sensor_id;sensor_type;location;lat;lon;timestamp;P1;durP1;ratioP1;P2;durP2;ratioP2
28774;SDS011;15926;51.348;6.596;2023-07-08T04:03:09;4.22;;;3.35;;
28774;SDS011;15926;51.348;6.596;2023-07-08T04:05:36;4.78;;;3.33;;
28774;SDS011;15926;51.348;6.596;2023-07-08T04:08:03;3.97;;;3.53;;
28774;SDS011;15926;51.348;6.596;2023-07-08T04:10:29;3.83;;;3.42;;
28774;SDS011;15926;51.348;6.596;2023-07-08T04:12:55;4.50;;;3.05;;
28774;SDS011;15926;51.348;6.596;2023-07-08T04:15:21;3.63;;;3.33;;
28774;SDS011;15926;51.348;6.596;2023-07-08T04:17:50;3.97;;;3.55;;
28774;SDS011;15926;51.348;6.596;2023-07-08T04:20:18;6.82;;;4.07;;
28774;SDS011;15926;51.348;6.596;2023-07-08T04:22:44;6.72;;;3.88;;
28774;SDS011;15926;51.348;6.596;2023-07-08T04:25:11;4.35;;;3.60;;
28774;SDS011;15926;51.348;6.596;2023-07-08T04:27:37;4.32;;;3.78;;
28774;SDS011;15926;51.348;6.596;2023-07-08T04:30:04;6.95;;;4.30;;
28774;SDS011;15926;51.348;6.596;2023-07-08T04:32:30;8.38;;;4.45;;
28774;SDS011;15926;51.348;6.596;2023-07-08T04:34:56;4.45;;;3.85;;
28774;SDS011;15926;51.348;6.596;2023-07-08T04:37:22;6.53;;;4.15;;
28774;SDS011;15926;51.348;6.596;2023-07-08T04:39:48;5.53;;;3.50;;
28774;SDS011;15926;51.348;6.596;2023-07-08T04:42:14;7.78;;;4.32;;
28774;SDS011;15926;51.348;6.596;2023-07-08T04:44:42;7.07;;;3.80;;
28774;SDS011;15926;51.348;6.596;2023-07-08T04:47:08;6.18;;;3.75;;
28774;SDS011;15926;51.348;6.596;2023-07-08T04:49:38;6.05;;;3.83;;
28774;SDS011;15926;51.348;6.596;2023-07-08T04:52:08;5.65;;;4.38;;
28774;SDS011;15926;51.348;6.596;2023-07-08T04:54:34;6.10;;;3.70;;
28774;SDS011;15926;51.348;6.596;2023-07-08T04:57:00;3.88;;;3.47;;
28774;SDS011;15926;51.348;6.596;2023-07-08T04:59:26;5.00;;;4.30;;
28774;SDS011;15926;51.348;6.596;2023-07-08T05:01:52;6.53;;;4.45;;
28774;SDS011;15926;51.348;6.596;2023-07-08T05:04:19;5.57;;;3.83;;
28774;SDS011;15926;51.348;6.596;2023-07-08T05:06:46;4.93;;;3.92;;
28774;SDS011;15926;51.348;6.596;2023-07-08T05:09:12;4.50;;;3.63;;
28774;SDS011;15926;51.348;6.596;2023-07-08T05:11:38;6.78;;;4.20;;
28774;SDS011;15926;51.348;6.596;2023-07-08T05:14:04;4.47;;;4.07;;
28774;SDS011;15926;51.348;6.596;2023-07-08T05:16:32;7.32;;;3.67;;
28774;SDS011;15926;51.348;6.596;2023-07-08T05:18:58;5.90;;;3.90;;
28774;SDS011;15926;51.348;6.596;2023-07-08T05:21:24;4.15;;;3.47;;
28774;SDS011;15926;51.348;6.596;2023-07-08T05:23:52;5.13;;;3.95;;
28774;SDS011;15926;51.348;6.596;2023-07-08T05:26:18;3.70;;;3.17;;
28774;SDS011;15926;51.348;6.596;2023-07-08T05:28:44;5.18;;;3.85;;
28774;SDS011;15926;51.348;6.596;2023-07-08T05:31:10;4.15;;;3.20;;
28774;SDS011;15926;51.348;6.596;2023-07-08T05:33:37;6.40;;;3.42;;
28774;SDS011;15926;51.348;6.596;2023-07-08T05:36:03;3.70;;;2.88;;
28774;SDS011;15926;51.348;6.596;2023-07-08T05:38:29;4.30;;;3.20;;
28774;SDS011;15926;51.348;6.596;2023-07-08T05:40:56;4.90;;;3.25;;
28774;SDS011;15926;51.348;6.596;2023-07-08T05:43:22;3.72;;;2.83;;
28774;SDS011;15926;51.348;6.596;2023-07-08T05:45:48;3.40;;;3.10;;
28774;SDS011;15926;51.348;6.596;2023-07-08T05:48:14;3.53;;;3.05;;
28774;SDS011;15926;51.348;6.596;2023-07-08T05:50:40;3.78;;;2.92;;
28774;SDS011;15926;51.348;6.596;2023-07-08T05:53:10;3.38;;;3.05;;
28774;SDS011;15926;51.348;6.596;2023-07-08T05:55:36;3.50;;;2.80;;
28774;SDS011;15926;51.348;6.596;2023-07-08T05:58:02;4.47;;;2.80;;
28774;SDS011;15926;51.348;6.596;2023-07-08T06:00:28;3.90;;;2.78;;
28774;SDS011;15926;51.348;6.596;2023-07-08T06:02:54;3.50;;;2.85;;
28774;SDS011;15926;51.348;6.596;2023-07-08T06:05:21;7.18;;;3.30;;
28774;SDS011;15926;51.348;6.596;2023-07-08T06:07:47;3.28;;;2.80;;
28774;SDS011;15926;51.348;6.596;2023-07-08T06:10:13;3.42;;;3.10;;
28774;SDS011;15926;51.348;6.596;2023-07-08T06:12:38;4.57;;;2.88;;
28774;SDS011;15926;51.348;6.596;2023-07-08T06:15:05;4.88;;;3.15;;
28774;SDS011;15926;51.348;6.596;2023-07-08T06:17:31;5.45;;;2.90;;
28774;SDS011;15926;51.348;6.596;2023-07-08T06:19:57;4.15;;;3.03;;
28774;SDS011;15926;51.348;6.596;2023-07-08T06:22:23;4.20;;;3.28;;
28774;SDS011;15926;51.348;6.596;2023-07-08T06:24:49;4.10;;;3.05;;
28774;SDS011;15926;51.348;6.596;2023-07-08T06:27:15;4.82;;;3.30;;
28774;SDS011;15926;51.348;6.596;2023-07-08T06:29:41;4.22;;;2.85;;
28774;SDS011;15926;51.348;6.596;2023-07-08T06:32:07;5.47;;;3.15;;
28774;SDS011;15926;51.348;6.596;2023-07-08T06:34:33;5.65;;;2.92;;
28774;SDS011;15926;51.348;6.596;2023-07-08T06:36:59;3.78;;;3.40;;
28774;SDS011;15926;51.348;6.596;2023-07-08T06:39:25;4.13;;;3.08;;
28774;SDS011;15926;51.348;6.596;2023-07-08T06:41:51;3.33;;;3.03;;
28774;SDS011;15926;51.348;6.596;2023-07-08T06:44:17;4.05;;;3.30;;
28774;SDS011;15926;51.348;6.596;2023-07-08T06:46:43;4.35;;;3.17;;
28774;SDS011;15926;51.348;6.596;2023-07-08T06:49:09;3.45;;;3.15;;
28774;SDS011;15926;51.348;6.596;2023-07-08T06:51:37;4.25;;;3.58;;
28774;SDS011;15926;51.348;6.596;2023-07-08T06:54:03;4.95;;;3.55;;
28774;SDS011;15926;51.348;6.596;2023-07-08T06:56:36;3.67;;;3.38;;
28774;SDS011;15926;51.348;6.596;2023-07-08T06:59:02;3.70;;;3.40;;
28774;SDS011;15926;51.348;6.596;2023-07-08T07:01:28;6.32;;;3.50;;
28774;SDS011;15926;51.348;6.596;2023-07-08T07:03:53;4.38;;;3.50;;
28774;SDS011;15926;51.348;6.596;2023-07-08T07:06:19;6.57;;;3.85;;
28774;SDS011;15926;51.348;6.596;2023-07-08T07:08:45;5.57;;;3.38;;
28774;SDS011;15926;51.348;6.596;2023-07-08T07:11:11;5.25;;;3.40;;
28774;SDS011;15926;51.348;6.596;2023-07-08T07:13:37;3.60;;;3.30;;
28774;SDS011;15926;51.348;6.596;2023-07-08T07:16:03;4.15;;;3.17;;
28774;SDS011;15926;51.348;6.596;2023-07-08T07:18:29;5.90;;;3.58;;
28774;SDS011;15926;51.348;6.596;2023-07-08T07:20:58;3.35;;;3.05;;
28774;SDS011;15926;51.348;6.596;2023-07-08T07:23:24;4.63;;;4.07;;
28774;SDS011;15926;51.348;6.596;2023-07-08T07:25:50;4.22;;;3.75;;
28774;SDS011;15926;51.348;6.596;2023-07-08T07:28:16;4.80;;;3.90;;
28774;SDS011;15926;51.348;6.596;2023-07-08T07:30:43;4.63;;;4.18;;
28774;SDS011;15926;51.348;6.596;2023-07-08T07:33:09;4.10;;;3.70;;
28774;SDS011;15926;51.348;6.596;2023-07-08T07:35:35;4.38;;;3.92;;
28774;SDS011;15926;51.348;6.596;2023-07-08T07:38:01;7.28;;;4.28;;
28774;SDS011;15926;51.348;6.596;2023-07-08T07:40:27;4.50;;;3.88;;
28774;SDS011;15926;51.348;6.596;2023-07-08T07:42:53;5.72;;;4.18;;
28774;SDS011;15926;51.348;6.596;2023-07-08T07:45:19;4.28;;;3.90;;
28774;SDS011;15926;51.348;6.596;2023-07-08T07:47:47;4.90;;;4.40;;
28774;SDS011;15926;51.348;6.596;2023-07-08T07:50:13;7.95;;;4.53;;
28774;SDS011;15926;51.348;6.596;2023-07-08T07:52:39;4.65;;;4.18;;
28774;SDS011;15926;51.348;6.596;2023-07-08T07:55:06;4.75;;;4.15;;
28774;SDS011;15926;51.348;6.596;2023-07-08T07:57:33;4.68;;;4.28;;
28774;SDS011;15926;51.348;6.596;2023-07-08T07:59:59;4.78;;;4.38;;
28774;SDS011;15926;51.348;6.596;2023-07-08T08:02:25;5.68;;;4.20;;
28774;SDS011;15926;51.348;6.596;2023-07-08T08:04:51;8.70;;;4.40;;
28774;SDS011;15926;51.348;6.596;2023-07-08T08:07:17;6.68;;;4.80;;
28774;SDS011;15926;51.348;6.596;2023-07-08T08:09:43;8.52;;;4.60;;
28774;SDS011;15926;51.348;6.596;2023-07-08T08:12:10;4.50;;;4.10;;
28774;SDS011;15926;51.348;6.596;2023-07-08T08:14:36;6.75;;;4.05;;
28774;SDS011;15926;51.348;6.596;2023-07-08T08:17:02;5.78;;;4.03;;
28774;SDS011;15926;51.348;6.596;2023-07-08T08:19:29;4.50;;;4.10;;
28774;SDS011;15926;51.348;6.596;2023-07-08T08:21:57;4.47;;;4.07;;
28774;SDS011;15926;51.348;6.596;2023-07-08T08:24:23;5.60;;;5.10;;
28774;SDS011;15926;51.348;6.596;2023-07-08T08:26:49;4.95;;;4.35;;
28774;SDS011;15926;51.348;6.596;2023-07-08T08:29:15;5.25;;;4.50;;
28774;SDS011;15926;51.348;6.596;2023-07-08T08:31:41;5.97;;;4.68;;
28774;SDS011;15926;51.348;6.596;2023-07-08T08:34:07;12.77;;;5.40;;
28774;SDS011;15926;51.348;6.596;2023-07-08T08:36:33;10.07;;;4.80;;
28774;SDS011;15926;51.348;6.596;2023-07-08T08:38:59;9.63;;;4.65;;
28774;SDS011;15926;51.348;6.596;2023-07-08T08:41:32;7.50;;;4.95;;
28774;SDS011;15926;51.348;6.596;2023-07-08T08:43:59;5.30;;;4.75;;
28774;SDS011;15926;51.348;6.596;2023-07-08T08:51:23;5.63;;;5.03;;
28774;SDS011;15926;51.348;6.596;2023-07-08T08:53:51;7.55;;;5.40;;
28774;SDS011;15926;51.348;6.596;2023-07-08T08:56:20;5.25;;;4.75;;
28774;SDS011;15926;51.348;6.596;2023-07-08T09:01:18;6.68;;;5.13;;
28774;SDS011;15926;51.348;6.596;2023-07-08T09:08:39;6.50;;;5.25;;
28774;SDS011;15926;51.348;6.596;2023-07-08T09:13:50;6.70;;;4.80;;
28774;SDS011;15926;51.348;6.596;2023-07-08T09:22:11;8.82;;;5.00;;
28774;SDS011;15926;51.348;6.596;2023-07-08T09:24:24;7.50;;;5.32;;
28774;SDS011;15926;51.348;6.596;2023-07-08T09:26:52;7.10;;;4.93;;
28774;SDS011;15926;51.348;6.596;2023-07-08T09:31:47;7.45;;;5.35;;
28774;SDS011;15926;51.348;6.596;2023-07-08T09:34:19;5.93;;;4.50;;
28774;SDS011;15926;51.348;6.596;2023-07-08T09:36:47;6.38;;;4.65;;
28774;SDS011;15926;51.348;6.596;2023-07-08T09:39:15;6.40;;;5.10;;
28774;SDS011;15926;51.348;6.596;2023-07-08T09:41:42;6.03;;;4.60;;
28774;SDS011;15926;51.348;6.596;2023-07-08T09:46:44;4.95;;;4.20;;
28774;SDS011;15926;51.348;6.596;2023-07-08T09:49:18;5.22;;;4.72;;
28774;SDS011;15926;51.348;6.596;2023-07-08T09:51:45;4.95;;;4.53;;
28774;SDS011;15926;51.348;6.596;2023-07-08T09:54:11;5.55;;;5.07;;
28774;SDS011;15926;51.348;6.596;2023-07-08T09:56:39;6.20;;;4.88;;
28774;SDS011;15926;51.348;6.596;2023-07-08T09:59:09;5.72;;;5.07;;
28774;SDS011;15926;51.348;6.596;2023-07-08T10:01:37;4.70;;;4.13;;
28774;SDS011;15926;51.348;6.596;2023-07-08T10:04:03;6.57;;;4.20;;
28774;SDS011;15926;51.348;6.596;2023-07-08T10:06:30;6.55;;;4.07;;
28774;SDS011;15926;51.348;6.596;2023-07-08T10:09:00;7.15;;;4.63;;
28774;SDS011;15926;51.348;6.596;2023-07-08T10:11:29;6.60;;;4.38;;
28774;SDS011;15926;51.348;6.596;2023-07-08T10:13:56;5.43;;;4.43;;
28774;SDS011;15926;51.348;6.596;2023-07-08T10:16:31;4.72;;;4.10;;
28774;SDS011;15926;51.348;6.596;2023-07-08T10:18:58;4.28;;;3.88;;
28774;SDS011;15926;51.348;6.596;2023-07-08T10:24:07;4.40;;;3.97;;
28774;SDS011;15926;51.348;6.596;2023-07-08T10:42:04;4.43;;;3.70;;
28774;SDS011;15926;51.348;6.596;2023-07-08T10:47:24;6.35;;;4.25;;
28774;SDS011;15926;51.348;6.596;2023-07-08T11:09:51;4.30;;;3.88;;
28774;SDS011;15926;51.348;6.596;2023-07-08T11:14:49;8.68;;;4.55;;
28774;SDS011;15926;51.348;6.596;2023-07-08T11:19:55;6.47;;;4.10;;
28774;SDS011;15926;51.348;6.596;2023-07-08T11:22:23;4.95;;;3.92;;
28774;SDS011;15926;51.348;6.596;2023-07-08T11:24:52;5.05;;;4.30;;
28774;SDS011;15926;51.348;6.596;2023-07-08T11:29:50;5.43;;;4.60;;
28774;SDS011;15926;51.348;6.596;2023-07-08T11:32:19;5.03;;;4.53;;
28774;SDS011;15926;51.348;6.596;2023-07-08T11:34:47;4.35;;;3.95;;
28774;SDS011;15926;51.348;6.596;2023-07-08T11:37:14;5.07;;;4.13;;
28774;SDS011;15926;51.348;6.596;2023-07-08T11:39:42;4.43;;;4.03;;
28774;SDS011;15926;51.348;6.596;2023-07-08T11:42:14;4.80;;;3.75;;
28774;SDS011;15926;51.348;6.596;2023-07-08T11:44:41;4.63;;;4.22;;
28774;SDS011;15926;51.348;6.596;2023-07-08T11:47:13;5.25;;;4.75;;
28774;SDS011;15926;51.348;6.596;2023-07-08T11:49:41;7.72;;;4.20;;
28774;SDS011;15926;51.348;6.596;2023-07-08T11:52:08;4.07;;;3.70;;
28774;SDS011;15926;51.348;6.596;2023-07-08T11:54:39;4.05;;;3.55;;
28774;SDS011;15926;51.348;6.596;2023-07-08T11:57:16;4.43;;;3.75;;
28774;SDS011;15926;51.348;6.596;2023-07-08T11:59:43;5.07;;;4.68;;
28774;SDS011;15926;51.348;6.596;2023-07-08T12:02:20;5.00;;;4.50;;
28774;SDS011;15926;51.348;6.596;2023-07-08T12:05:01;6.55;;;4.00;;
28774;SDS011;15926;51.348;6.596;2023-07-08T12:12:42;5.47;;;4.50;;
28774;SDS011;15926;51.348;6.596;2023-07-08T12:15:11;4.90;;;4.30;;
28774;SDS011;15926;51.348;6.596;2023-07-08T12:17:40;8.02;;;3.47;;
28774;SDS011;15926;51.348;6.596;2023-07-08T12:20:15;5.47;;;4.07;;
28774;SDS011;15926;51.348;6.596;2023-07-08T12:22:42;5.10;;;3.80;;
28774;SDS011;15926;51.348;6.596;2023-07-08T12:25:11;6.60;;;3.75;;
28774;SDS011;15926;51.348;6.596;2023-07-08T12:27:38;3.78;;;3.47;;
28774;SDS011;15926;51.348;6.596;2023-07-08T12:30:04;6.05;;;4.10;;
28774;SDS011;15926;51.348;6.596;2023-07-08T12:32:30;5.47;;;4.30;;
28774;SDS011;15926;51.348;6.596;2023-07-08T12:34:57;9.25;;;4.18;;
28774;SDS011;15926;51.348;6.596;2023-07-08T12:37:23;4.13;;;3.80;;
28774;SDS011;15926;51.348;6.596;2023-07-08T12:39:56;5.75;;;4.30;;
28774;SDS011;15926;51.348;6.596;2023-07-08T12:42:28;7.22;;;4.07;;
28774;SDS011;15926;51.348;6.596;2023-07-08T12:44:54;5.93;;;4.20;;
28774;SDS011;15926;51.348;6.596;2023-07-08T12:47:20;4.85;;;3.97;;
28774;SDS011;15926;51.348;6.596;2023-07-08T12:49:46;4.15;;;3.75;;
28774;SDS011;15926;51.348;6.596;2023-07-08T12:52:20;4.07;;;3.38;;
28774;SDS011;15926;51.348;6.596;2023-07-08T12:54:46;3.72;;;3.28;;
28774;SDS011;15926;51.348;6.596;2023-07-08T12:57:12;3.53;;;3.22;;
28774;SDS011;15926;51.348;6.596;2023-07-08T12:59:39;4.07;;;3.20;;
28774;SDS011;15926;51.348;6.596;2023-07-08T13:02:10;3.92;;;3.50;;
28774;SDS011;15926;51.348;6.596;2023-07-08T13:04:40;4.55;;;3.30;;
28774;SDS011;15926;51.348;6.596;2023-07-08T13:07:08;5.82;;;3.67;;
28774;SDS011;15926;51.348;6.596;2023-07-08T13:09:39;3.70;;;3.40;;
28774;SDS011;15926;51.348;6.596;2023-07-08T13:12:16;4.07;;;3.58;;
28774;SDS011;15926;51.348;6.596;2023-07-08T13:14:47;6.60;;;3.70;;
28774;SDS011;15926;51.348;6.596;2023-07-08T13:17:14;5.80;;;3.50;;
28774;SDS011;15926;51.348;6.596;2023-07-08T13:19:40;3.97;;;3.58;;
28774;SDS011;15926;51.348;6.596;2023-07-08T13:22:09;6.03;;;3.65;;
28774;SDS011;15926;51.348;6.596;2023-07-08T13:24:35;5.97;;;3.72;;
28774;SDS011;15926;51.348;6.596;2023-07-08T13:27:04;7.85;;;3.78;;
28774;SDS011;15926;51.348;6.596;2023-07-08T13:29:33;5.38;;;3.58;;
28774;SDS011;15926;51.348;6.596;2023-07-08T13:32:05;4.95;;;3.63;;
28774;SDS011;15926;51.348;6.596;2023-07-08T13:34:32;4.03;;;3.45;;
28774;SDS011;15926;51.348;6.596;2023-07-08T13:36:58;6.55;;;3.28;;
28774;SDS011;15926;51.348;6.596;2023-07-08T13:39:26;3.65;;;3.35;;
28774;SDS011;15926;51.348;6.596;2023-07-08T13:41:53;4.22;;;3.83;;
28774;SDS011;15926;51.348;6.596;2023-07-08T13:44:19;4.95;;;4.00;;
28774;SDS011;15926;51.348;6.596;2023-07-08T13:46:51;4.25;;;3.95;;
28774;SDS011;15926;51.348;6.596;2023-07-08T13:49:28;5.65;;;3.78;;
28774;SDS011;15926;51.348;6.596;2023-07-08T13:52:37;5.03;;;3.60;;
28774;SDS011;15926;51.348;6.596;2023-07-08T13:54:46;6.30;;;4.05;;
28774;SDS011;15926;51.348;6.596;2023-07-08T13:57:15;4.05;;;3.70;;
28774;SDS011;15926;51.348;6.596;2023-07-08T14:02:23;6.05;;;4.18;;
28774;SDS011;15926;51.348;6.596;2023-07-08T14:04:50;4.50;;;3.78;;
28774;SDS011;15926;51.348;6.596;2023-07-08T14:07:19;5.10;;;4.05;;
28774;SDS011;15926;51.348;6.596;2023-07-08T14:09:45;6.35;;;4.40;;
28774;SDS011;15926;51.348;6.596;2023-07-08T14:12:11;5.97;;;4.03;;
28774;SDS011;15926;51.348;6.596;2023-07-08T14:14:37;4.43;;;3.42;;
28774;SDS011;15926;51.348;6.596;2023-07-08T14:17:03;4.07;;;3.67;;
28774;SDS011;15926;51.348;6.596;2023-07-08T14:19:30;8.05;;;4.50;;
28774;SDS011;15926;51.348;6.596;2023-07-08T14:21:57;6.28;;;4.57;;
28774;SDS011;15926;51.348;6.596;2023-07-08T14:24:24;4.60;;;4.20;;
28774;SDS011;15926;51.348;6.596;2023-07-08T14:26:50;4.30;;;3.83;;
28774;SDS011;15926;51.348;6.596;2023-07-08T14:29:17;8.20;;;4.13;;
28774;SDS011;15926;51.348;6.596;2023-07-08T14:31:43;4.43;;;4.03;;
28774;SDS011;15926;51.348;6.596;2023-07-08T14:34:13;4.05;;;3.65;;
28774;SDS011;15926;51.348;6.596;2023-07-08T14:36:40;5.68;;;4.53;;
28774;SDS011;15926;51.348;6.596;2023-07-08T14:39:11;5.85;;;3.58;;
28774;SDS011;15926;51.348;6.596;2023-07-08T14:41:37;4.68;;;4.10;;
28774;SDS011;15926;51.348;6.596;2023-07-08T14:44:08;4.95;;;3.55;;
28774;SDS011;15926;51.348;6.596;2023-07-08T14:46:34;4.70;;;4.30;;
28774;SDS011;15926;51.348;6.596;2023-07-08T14:49:00;6.63;;;4.28;;
28774;SDS011;15926;51.348;6.596;2023-07-08T14:51:26;5.75;;;4.03;;
28774;SDS011;15926;51.348;6.596;2023-07-08T14:53:52;5.55;;;3.90;;
28774;SDS011;15926;51.348;6.596;2023-07-08T14:56:18;5.22;;;3.72;;
28774;SDS011;15926;51.348;6.596;2023-07-08T14:58:44;4.15;;;3.85;;
28774;SDS011;15926;51.348;6.596;2023-07-08T15:01:15;5.40;;;3.67;;
28774;SDS011;15926;51.348;6.596;2023-07-08T15:03:42;5.47;;;3.92;;
28774;SDS011;15926;51.348;6.596;2023-07-08T15:06:10;4.13;;;3.83;;
28774;SDS011;15926;51.348;6.596;2023-07-08T15:08:36;5.93;;;3.85;;
28774;SDS011;15926;51.348;6.596;2023-07-08T15:11:02;4.22;;;3.85;;
28774;SDS011;15926;51.348;6.596;2023-07-08T15:13:31;6.50;;;3.65;;
28774;SDS011;15926;51.348;6.596;2023-07-08T15:15:57;5.13;;;3.42;;
28774;SDS011;15926;51.348;6.596;2023-07-08T15:18:24;4.55;;;4.05;;
28774;SDS011;15926;51.348;6.596;2023-07-08T15:20:49;6.88;;;3.78;;
28774;SDS011;15926;51.348;6.596;2023-07-08T15:23:15;4.82;;;3.60;;
28774;SDS011;15926;51.348;6.596;2023-07-08T15:25:44;8.07;;;3.88;;
28774;SDS011;15926;51.348;6.596;2023-07-08T15:28:20;7.55;;;4.10;;
28774;SDS011;15926;51.348;6.596;2023-07-08T15:30:48;9.98;;;4.20;;
28774;SDS011;15926;51.348;6.596;2023-07-08T15:33:15;7.78;;;5.55;;
28774;SDS011;15926;51.348;6.596;2023-07-08T15:35:41;6.47;;;5.03;;
28774;SDS011;15926;51.348;6.596;2023-07-08T15:38:08;5.53;;;4.82;;
28774;SDS011;15926;51.348;6.596;2023-07-08T15:40:34;6.03;;;4.20;;
28774;SDS011;15926;51.348;6.596;2023-07-08T15:43:02;4.88;;;4.32;;
28774;SDS011;15926;51.348;6.596;2023-07-08T15:45:30;4.82;;;3.92;;
28774;SDS011;15926;51.348;6.596;2023-07-08T15:47:56;5.38;;;3.90;;
28774;SDS011;15926;51.348;6.596;2023-07-08T15:50:23;5.20;;;3.70;;
28774;SDS011;15926;51.348;6.596;2023-07-08T15:52:52;4.30;;;3.95;;
28774;SDS011;15926;51.348;6.596;2023-07-08T15:55:28;4.30;;;3.90;;
28774;SDS011;15926;51.348;6.596;2023-07-08T15:58:05;6.60;;;4.13;;
28774;SDS011;15926;51.348;6.596;2023-07-08T16:00:33;4.63;;;4.22;;
28774;SDS011;15926;51.348;6.596;2023-07-08T16:03:04;4.10;;;3.78;;
28774;SDS011;15926;51.348;6.596;2023-07-08T16:05:32;4.30;;;3.70;;
28774;SDS011;15926;51.348;6.596;2023-07-08T16:08:00;4.47;;;3.83;;
28774;SDS011;15926;51.348;6.596;2023-07-08T16:10:28;4.33;;;3.93;;
28774;SDS011;15926;51.348;6.596;2023-07-08T16:12:54;4.53;;;3.65;;
28774;SDS011;15926;51.348;6.596;2023-07-08T16:15:31;4.37;;;3.90;;
28774;SDS011;15926;51.348;6.596;2023-07-08T16:17:58;4.32;;;3.95;;
28774;SDS011;15926;51.348;6.596;2023-07-08T16:20:25;5.47;;;3.83;;
28774;SDS011;15926;51.348;6.596;2023-07-08T16:22:51;5.95;;;4.80;;
28774;SDS011;15926;51.348;6.596;2023-07-08T16:25:19;5.35;;;4.85;;
28774;SDS011;15926;51.348;6.596;2023-07-08T16:27:47;6.50;;;4.20;;
28774;SDS011;15926;51.348;6.596;2023-07-08T16:30:17;5.13;;;4.32;;
28774;SDS011;15926;51.348;6.596;2023-07-08T16:32:43;6.55;;;4.43;;
28774;SDS011;15926;51.348;6.596;2023-07-08T16:35:10;4.55;;;4.15;;
28774;SDS011;15926;51.348;6.596;2023-07-08T16:37:37;3.95;;;3.65;;
28774;SDS011;15926;51.348;6.596;2023-07-08T16:40:04;4.40;;;4.00;;
28774;SDS011;15926;51.348;6.596;2023-07-08T16:42:32;4.63;;;3.90;;
28774;SDS011;15926;51.348;6.596;2023-07-08T16:44:58;6.35;;;4.55;;
28774;SDS011;15926;51.348;6.596;2023-07-08T16:47:24;5.10;;;3.95;;
28774;SDS011;15926;51.348;6.596;2023-07-08T16:49:50;5.03;;;3.85;;
28774;SDS011;15926;51.348;6.596;2023-07-08T16:52:16;5.75;;;4.50;;
28774;SDS011;15926;51.348;6.596;2023-07-08T16:54:43;4.13;;;3.72;;
28774;SDS011;15926;51.348;6.596;2023-07-08T16:57:09;4.70;;;4.28;;
28774;SDS011;15926;51.348;6.596;2023-07-08T16:59:38;5.72;;;4.65;;
28774;SDS011;15926;51.348;6.596;2023-07-08T17:02:14;5.85;;;4.20;;
28774;SDS011;15926;51.348;6.596;2023-07-08T17:04:43;4.45;;;3.97;;
28774;SDS011;15926;51.348;6.596;2023-07-08T17:07:10;6.93;;;4.40;;
28774;SDS011;15926;51.348;6.596;2023-07-08T17:09:36;4.88;;;4.20;;
28774;SDS011;15926;51.348;6.596;2023-07-08T17:12:02;5.35;;;3.78;;
28774;SDS011;15926;51.348;6.596;2023-07-08T17:14:28;4.57;;;4.18;;
28774;SDS011;15926;51.348;6.596;2023-07-08T17:16:54;5.05;;;3.83;;
28774;SDS011;15926;51.348;6.596;2023-07-08T17:19:20;4.97;;;4.10;;
28774;SDS011;15926;51.348;6.596;2023-07-08T17:21:47;6.95;;;4.45;;
28774;SDS011;15926;51.348;6.596;2023-07-08T17:24:13;7.53;;;3.70;;
28774;SDS011;15926;51.348;6.596;2023-07-08T17:26:40;4.57;;;4.15;;
28774;SDS011;15926;51.348;6.596;2023-07-08T17:29:07;6.00;;;3.85;;
28774;SDS011;15926;51.348;6.596;2023-07-08T17:31:34;5.70;;;5.03;;
28774;SDS011;15926;51.348;6.596;2023-07-08T17:34:00;6.20;;;5.40;;
28774;SDS011;15926;51.348;6.596;2023-07-08T17:36:28;8.25;;;5.63;;
28774;SDS011;15926;51.348;6.596;2023-07-08T17:38:56;6.07;;;5.32;;
28774;SDS011;15926;51.348;6.596;2023-07-08T17:41:22;6.00;;;5.15;;
28774;SDS011;15926;51.348;6.596;2023-07-08T17:43:48;6.55;;;5.00;;
28774;SDS011;15926;51.348;6.596;2023-07-08T17:46:18;6.90;;;4.85;;
28774;SDS011;15926;51.348;6.596;2023-07-08T17:48:46;6.03;;;4.65;;
28774;SDS011;15926;51.348;6.596;2023-07-08T17:51:17;5.20;;;4.50;;
28774;SDS011;15926;51.348;6.596;2023-07-08T17:53:44;6.68;;;4.60;;
28774;SDS011;15926;51.348;6.596;2023-07-08T17:56:20;6.40;;;4.40;;
28774;SDS011;15926;51.348;6.596;2023-07-08T17:58:50;6.07;;;4.65;;
28774;SDS011;15926;51.348;6.596;2023-07-08T18:01:17;8.30;;;5.22;;
28774;SDS011;15926;51.348;6.596;2023-07-08T18:03:43;5.40;;;4.90;;
28774;SDS011;15926;51.348;6.596;2023-07-08T18:06:11;55.95;;;15.63;;
28774;SDS011;15926;51.348;6.596;2023-07-08T18:08:37;18.55;;;7.68;;
28774;SDS011;15926;51.348;6.596;2023-07-08T18:11:03;43.53;;;13.18;;
28774;SDS011;15926;51.348;6.596;2023-07-08T18:13:30;28.92;;;9.60;;
28774;SDS011;15926;51.348;6.596;2023-07-08T18:15:59;37.35;;;10.75;;
28774;SDS011;15926;51.348;6.596;2023-07-08T18:18:25;54.42;;;14.82;;
28774;SDS011;15926;51.348;6.596;2023-07-08T18:20:52;59.28;;;15.02;;
28774;SDS011;15926;51.348;6.596;2023-07-08T18:23:19;60.45;;;15.45;;
28774;SDS011;15926;51.348;6.596;2023-07-08T18:25:45;43.65;;;12.57;;
28774;SDS011;15926;51.348;6.596;2023-07-08T18:28:12;54.55;;;12.95;;
28774;SDS011;15926;51.348;6.596;2023-07-08T18:30:38;60.28;;;17.92;;
28774;SDS011;15926;51.348;6.596;2023-07-08T18:33:08;55.90;;;17.15;;
28774;SDS011;15926;51.348;6.596;2023-07-08T18:35:34;36.53;;;11.60;;
28774;SDS011;15926;51.348;6.596;2023-07-08T18:38:00;28.50;;;10.57;;
28774;SDS011;15926;51.348;6.596;2023-07-08T18:40:28;21.23;;;8.55;;
28774;SDS011;15926;51.348;6.596;2023-07-08T18:43:01;26.38;;;9.05;;
28774;SDS011;15926;51.348;6.596;2023-07-08T18:45:30;30.48;;;9.45;;
28774;SDS011;15926;51.348;6.596;2023-07-08T18:47:56;26.35;;;10.10;;
28774;SDS011;15926;51.348;6.596;2023-07-08T18:50:22;26.45;;;11.10;;
28774;SDS011;15926;51.348;6.596;2023-07-08T18:52:49;25.77;;;8.88;;
28774;SDS011;15926;51.348;6.596;2023-07-08T18:55:16;18.20;;;7.68;;
28774;SDS011;15926;51.348;6.596;2023-07-08T18:57:42;23.40;;;9.15;;
28774;SDS011;15926;51.348;6.596;2023-07-08T19:00:12;30.13;;;9.95;;
28774;SDS011;15926;51.348;6.596;2023-07-08T19:02:48;22.48;;;9.05;;
28774;SDS011;15926;51.348;6.596;2023-07-08T19:05:15;15.77;;;8.15;;
28774;SDS011;15926;51.348;6.596;2023-07-08T19:07:41;27.05;;;8.50;;
28774;SDS011;15926;51.348;6.596;2023-07-08T19:10:07;18.75;;;7.35;;
28774;SDS011;15926;51.348;6.596;2023-07-08T19:12:34;23.13;;;7.32;;
28774;SDS011;15926;51.348;6.596;2023-07-08T19:15:01;20.65;;;7.97;;
28774;SDS011;15926;51.348;6.596;2023-07-08T19:17:28;16.42;;;7.25;;
28774;SDS011;15926;51.348;6.596;2023-07-08T19:19:54;19.08;;;7.65;;
28774;SDS011;15926;51.348;6.596;2023-07-08T19:22:20;10.50;;;4.90;;
28774;SDS011;15926;51.348;6.596;2023-07-08T19:24:53;6.55;;;4.30;;
28774;SDS011;15926;51.348;6.596;2023-07-08T19:27:20;7.60;;;4.18;;
28774;SDS011;15926;51.348;6.596;2023-07-08T19:29:46;5.10;;;4.28;;
28774;SDS011;15926;51.348;6.596;2023-07-08T19:32:13;5.93;;;4.50;;
28774;SDS011;15926;51.348;6.596;2023-07-08T19:34:40;5.10;;;4.60;;
28774;SDS011;15926;51.348;6.596;2023-07-08T19:37:10;7.68;;;4.57;;
28774;SDS011;15926;51.348;6.596;2023-07-08T19:39:38;5.55;;;4.70;;
28774;SDS011;15926;51.348;6.596;2023-07-08T19:42:05;6.70;;;4.60;;
28774;SDS011;15926;51.348;6.596;2023-07-08T19:44:31;11.82;;;5.55;;
28774;SDS011;15926;51.348;6.596;2023-07-08T19:46:57;6.97;;;4.60;;
28774;SDS011;15926;51.348;6.596;2023-07-08T19:49:23;5.40;;;4.90;;
28774;SDS011;15926;51.348;6.596;2023-07-08T19:51:49;10.48;;;5.00;;
28774;SDS011;15926;51.348;6.596;2023-07-08T19:54:15;6.40;;;4.95;;
28774;SDS011;15926;51.348;6.596;2023-07-08T19:56:41;6.63;;;4.95;;
28774;SDS011;15926;51.348;6.596;2023-07-08T19:59:09;8.30;;;4.90;;
28774;SDS011;15926;51.348;6.596;2023-07-08T20:01:38;7.00;;;4.65;;
28774;SDS011;15926;51.348;6.596;2023-07-08T20:04:04;8.88;;;4.57;;
28774;SDS011;15926;51.348;6.596;2023-07-08T20:06:30;7.85;;;4.88;;
28774;SDS011;15926;51.348;6.596;2023-07-08T20:08:56;7.22;;;4.82;;
28774;SDS011;15926;51.348;6.596;2023-07-08T20:11:23;5.13;;;4.25;;